Time;durP1;ratioP1;P1;durP2;ratioP2;P2;SDS_P1;SDS_P2;PMS_P1;PMS_P2;Temp;Humidity;BMP_temperature;BMP_pressure;BME280_temperature;BME280_humidity;BME280_pressure;Samples;Min_cycle;Max_cycle;Signal;HPM_P1;HPM_P2
2022/08/21 00:00:26;;;;;;;6.95;6.35;;;;;;;19.91;100.00;99944.70;2866449;79;21755;-86
2022/08/21 00:04:30;;;;;;;6.80;6.10;;;;;;;19.80;100.00;99943.38;2864108;80;21002;-86
2022/08/21 00:08:31;;;;;;;9.20;8.30;;;;;;;19.84;100.00;99937.36;2851304;79;20997;-86
2022/08/21 00:12:33;;;;;;;7.62;5.83;;;;;;;19.74;100.00;99938.23;2855742;79;20974;-86
2022/08/21 00:16:35;;;;;;;6.55;4.95;;;;;;;19.69;100.00;99942.04;2841553;79;21037;-86
2022/08/21 00:20:37;;;;;;;5.75;5.12;;;;;;;19.79;100.00;99945.22;2856162;79;21642;-86
2022/08/21 00:24:39;;;;;;;7.47;5.87;;;;;;;19.72;100.00;99938.95;2798756;82;21044;-86
2022/08/21 00:28:41;;;;;;;7.08;5.72;;;;;;;19.66;100.00;99942.44;2876567;80;21002;-86
2022/08/21 00:32:43;;;;;;;6.72;5.17;;;;;;;19.59;100.00;99942.87;2877957;79;21048;-86
2022/08/21 00:36:45;;;;;;;7.90;6.25;;;;;;;19.68;100.00;99941.72;2860071;79;21031;-87
2022/08/21 00:40:51;;;;;;;7.05;5.12;;;;;;;19.64;100.00;99951.20;2888674;80;22086;-86
2022/08/21 00:44:52;;;;;;;6.15;5.25;;;;;;;19.63;100.00;99957.13;2912361;80;21046;-86
2022/08/21 00:48:55;;;;;;;6.12;5.53;;;;;;;19.60;100.00;99938.64;2874150;81;21153;-86
2022/08/21 00:52:57;;;;;;;5.65;4.70;;;;;;;19.61;100.00;99939.45;2873143;80;20994;-86
2022/08/21 00:57:09;;;;;;;9.50;6.00;;;;;;;19.59;100.00;99934.77;2890132;79;21030;-86
2022/08/21 01:01:10;;;;;;;4.33;4.03;;;;;;;19.55;100.00;99942.41;2901271;80;21037;-86
2022/08/21 01:05:13;;;;;;;6.30;5.17;;;;;;;19.54;100.00;99944.78;2816311;82;21055;-86
2022/08/21 01:09:15;;;;;;;5.85;4.65;;;;;;;19.49;100.00;99939.99;2824649;82;21078;-86
2022/08/21 01:13:18;;;;;;;6.12;5.55;;;;;;;19.36;100.00;99939.86;2837707;83;21011;-86
2022/08/21 01:17:21;;;;;;;5.85;5.22;;;;;;;19.29;100.00;99943.01;2788071;83;21059;-86
2022/08/21 01:21:26;;;;;;;9.00;4.40;;;;;;;19.19;100.00;99933.36;2873101;82;21059;-86
2022/08/21 01:25:28;;;;;;;8.23;4.08;;;;;;;19.23;100.00;99931.94;2824343;82;21051;-86
2022/08/21 01:29:47;;;;;;;4.58;3.92;;;;;;;19.08;100.00;99930.66;2786677;83;21039;-86
2022/08/21 01:33:48;;;;;;;4.55;4.10;;;;;;;19.09;100.00;99928.28;2843498;82;20983;-85
2022/08/21 01:37:49;;;;;;;4.55;3.20;;;;;;;19.09;100.00;99916.67;2777652;84;21019;-86
2022/08/21 01:41:51;;;;;;;10.10;4.85;;;;;;;19.05;100.00;99909.97;2876229;82;20983;-86
2022/08/21 01:45:52;;;;;;;3.65;3.35;;;;;;;18.98;100.00;99908.55;2855000;82;21043;-86
2022/08/21 01:49:54;;;;;;;5.12;4.12;;;;;;;18.87;100.00;99900.45;2787816;83;21024;-86
2022/08/21 01:53:56;;;;;;;5.70;3.52;;;;;;;18.93;100.00;99909.11;2849234;82;21067;-86
2022/08/21 01:57:59;;;;;;;4.67;4.20;;;;;;;18.86;100.00;99901.44;2828569;81;21022;-86
2022/08/21 02:02:01;;;;;;;5.55;4.97;;;;;;;18.87;100.00;99907.19;2843474;80;21122;-86
2022/08/21 02:06:07;;;;;;;7.30;4.55;;;;;;;18.92;100.00;99897.16;2844321;81;21007;-86
2022/08/21 02:10:11;;;;;;;5.30;4.40;;;;;;;18.86;100.00;99900.63;2859830;81;21038;-86
2022/08/21 02:14:15;;;;;;;7.53;4.45;;;;;;;18.80;100.00;99890.09;2833641;80;21556;-86
2022/08/21 02:18:16;;;;;;;6.53;4.28;;;;;;;18.88;100.00;99885.95;2839894;81;21038;-86
2022/08/21 02:22:17;;;;;;;5.40;4.35;;;;;;;18.82;100.00;99875.41;2817768;81;21063;-86
2022/08/21 02:26:19;;;;;;;5.25;4.75;;;;;;;18.86;100.00;99883.92;2782217;81;21114;-86
2022/08/21 02:30:25;;;;;;;9.13;4.53;;;;;;;18.85;100.00;99883.61;2811225;83;21038;-86
2022/08/21 02:34:27;;;;;;;7.42;5.40;;;;;;;18.87;100.00;99880.23;2837764;81;21150;-86
2022/08/21 02:38:33;;;;;;;5.12;3.52;;;;;;;18.81;100.00;99872.89;2832432;81;20997;-86
2022/08/21 02:42:35;;;;;;;8.78;5.97;;;;;;;18.83;100.00;99876.23;2808470;83;21010;-87
2022/08/21 02:46:36;;;;;;;6.50;4.62;;;;;;;18.87;100.00;99882.93;2835740;81;21042;-86
2022/08/21 02:50:42;;;;;;;7.45;5.33;;;;;;;18.89;100.00;99874.14;2806984;81;20995;-86
2022/08/21 02:54:44;;;;;;;8.88;4.92;;;;;;;18.87;100.00;99876.70;2826093;81;21016;-86
2022/08/21 02:58:51;;;;;;;8.88;6.55;;;;;;;18.86;100.00;99865.59;2772659;83;21039;-86
2022/08/21 03:02:53;;;;;;;12.60;6.78;;;;;;;18.83;100.00;99870.84;2814470;82;21022;-86
2022/08/21 03:06:54;;;;;;;7.35;6.45;;;;;;;18.86;100.00;99870.45;2816380;82;21047;-86
2022/08/21 03:10:56;;;;;;;6.30;5.05;;;;;;;18.86;100.00;99862.38;2826060;82;21081;-87
2022/08/21 03:14:58;;;;;;;8.65;7.15;;;;;;;18.81;100.00;99864.31;2808208;83;21035;-87
2022/08/21 03:18:59;;;;;;;6.15;5.33;;;;;;;18.90;100.00;99866.38;2842165;82;21007;-86
2022/08/21 03:23:03;;;;;;;9.33;6.33;;;;;;;18.88;100.00;99869.78;2817255;83;21589;-86
2022/08/21 03:27:05;;;;;;;7.50;6.70;;;;;;;18.89;100.00;99870.09;2852626;81;21087;-86
2022/08/21 03:31:06;;;;;;;9.08;7.03;;;;;;;18.91;100.00;99869.89;2835155;81;21016;-87
2022/08/21 03:35:08;;;;;;;9.58;7.75;;;;;;;18.90;100.00;99873.11;2878571;82;21014;-86
2022/08/21 03:39:09;;;;;;;7.92;6.60;;;;;;;18.90;100.00;99867.72;2892414;81;20995;-87
2022/08/21 03:43:11;;;;;;;7.90;7.10;;;;;;;18.86;100.00;99871.80;2835021;82;21455;-86
2022/08/21 03:47:12;;;;;;;6.80;6.10;;;;;;;18.87;100.00;99879.39;2794854;83;21139;-86
2022/08/21 03:51:13;;;;;;;8.38;6.85;;;;;;;18.94;100.00;99873.05;2777807;83;21007;-86
2022/08/21 03:55:15;;;;;;;7.47;6.15;;;;;;;18.89;100.00;99882.23;2815002;80;21030;-86
2022/08/21 03:59:16;;;;;;;6.97;5.42;;;;;;;18.97;100.00;99885.31;2833451;81;21064;-86
2022/08/21 04:03:18;;;;;;;9.28;6.83;;;;;;;18.89;100.00;99891.66;2768561;84;21069;-87
2022/08/21 04:07:19;;;;;;;9.25;7.55;;;;;;;18.98;100.00;99893.72;2797117;83;21011;-86
2022/08/21 04:11:21;;;;;;;7.12;6.28;;;;;;;18.92;100.00;99892.62;2794313;82;21008;-86
2022/08/21 04:15:25;;;;;;;6.55;5.92;;;;;;;18.93;100.00;99904.22;2768266;84;21675;-87
2022/08/21 04:19:27;;;;;;;7.45;6.75;;;;;;;18.97;100.00;99899.61;2844483;82;21665;-86
2022/08/21 04:23:29;;;;;;;7.97;6.33;;;;;;;19.01;100.00;99904.65;2820639;82;21021;-87
2022/08/21 04:27:30;;;;;;;8.93;8.03;;;;;;;19.01;100.00;99904.65;2818753;83;21046;-86
2022/08/21 04:31:33;;;;;;;8.30;7.15;;;;;;;19.01;100.00;99910.04;2825378;82;21063;-87
2022/08/21 04:35:34;;;;;;;9.68;7.03;;;;;;;18.89;100.00;99906.98;2852781;82;21030;-86
2022/08/21 04:39:35;;;;;;;8.98;8.08;;;;;;;18.81;100.00;99905.23;2825863;82;21307;-87
2022/08/21 04:43:39;;;;;;;10.98;8.43;;;;;;;18.76;100.00;99899.58;2798776;82;21087;-86
2022/08/21 04:47:40;;;;;;;8.33;7.45;;;;;;;18.78;100.00;99908.30;2819732;82;21047;-86
2022/08/21 04:51:42;;;;;;;9.83;7.65;;;;;;;18.72;100.00;99903.68;2779038;84;21096;-86
2022/08/21 04:55:45;;;;;;;8.78;7.80;;;;;;;18.77;100.00;99903.45;2796565;83;21568;-86
2022/08/21 04:59:50;;;;;;;15.35;7.45;;;;;;;18.75;100.00;99897.38;2831772;83;21043;-87
2022/08/21 05:03:56;;;;;;;8.83;6.77;;;;;;;18.80;100.00;99899.52;2806513;82;21047;-87
2022/08/21 05:08:01;;;;;;;6.85;6.03;;;;;;;18.80;100.00;99903.06;2775269;83;21098;-87
2022/08/21 05:12:03;;;;;;;7.35;6.65;;;;;;;18.86;100.00;99910.88;2731829;84;21004;-87
2022/08/21 05:16:05;;;;;;;12.93;7.25;;;;;;;18.92;100.00;99916.87;2759887;84;21016;-87
2022/08/21 05:20:07;;;;;;;8.73;6.58;;;;;;;18.88;100.00;99919.63;2800475;83;21042;-87
2022/08/21 05:24:10;;;;;;;6.58;4.78;;;;;;;18.94;100.00;99929.64;2772894;83;21043;-86
2022/08/21 05:28:12;;;;;;;7.08;4.95;;;;;;;18.92;100.00;99938.44;2799518;83;21029;-86
2022/08/21 05:32:14;;;;;;;5.62;4.87;;;;;;;18.92;100.00;99951.91;2774556;83;21090;-86
2022/08/21 05:36:18;;;;;;;5.97;5.40;;;;;;;19.04;100.00;99968.45;2802144;83;21058;-86
2022/08/21 05:40:20;;;;;;;5.83;4.72;;;;;;;19.06;100.00;99984.42;2801801;83;21039;-86
2022/08/21 05:44:21;;;;;;;4.90;4.42;;;;;;;19.08;100.00;99994.52;2802593;82;20999;-85
2022/08/21 05:48:25;;;;;;;5.83;5.30;;;;;;;19.10;100.00;100011.34;2801381;83;21389;-85
2022/08/21 05:52:26;;;;;;;4.72;3.85;;;;;;;19.13;100.00;100024.44;2800202;83;21080;-85
2022/08/21 05:56:28;;;;;;;5.58;4.87;;;;;;;19.05;100.00;100049.64;2808175;83;21088;-85
2022/08/21 06:00:30;;;;;;;4.28;3.85;;;;;;;19.04;100.00;100057.89;2840534;82;21058;-85
2022/08/21 06:04:38;;;;;;;6.80;4.62;;;;;;;18.98;100.00;100069.76;2839428;82;21117;-86
2022/08/21 06:08:40;;;;;;;6.65;5.70;;;;;;;19.00;100.00;100079.52;2807110;82;21094;-86
2022/08/21 06:12:41;;;;;;;8.15;4.87;;;;;;;18.82;100.00;100077.98;2913618;79;21483;-85
2022/08/21 06:16:43;;;;;;;4.33;3.92;;;;;;;18.63;100.00;100068.08;2894428;80;21038;-85
2022/08/21 06:20:45;;;;;;;6.80;3.65;;;;;;;18.48;100.00;100065.91;2823907;81;21018;-84
2022/08/21 06:24:47;;;;;;;8.80;4.25;;;;;;;18.37;100.00;100073.89;2858540;80;21013;-85
2022/08/21 06:28:49;;;;;;;4.78;4.17;;;;;;;18.20;100.00;100079.44;2872611;80;21041;-84
2022/08/21 06:32:50;;;;;;;10.20;4.28;;;;;;;18.15;100.00;100090.41;2795669;82;21031;-85
2022/08/21 06:36:51;;;;;;;11.22;4.67;;;;;;;18.09;100.00;100091.47;2824308;82;21006;-86
2022/08/21 06:40:53;;;;;;;7.45;5.03;;;;;;;18.11;100.00;100089.92;2822954;82;21054;-85
2022/08/21 06:44:55;;;;;;;7.87;3.62;;;;;;;18.08;100.00;100087.60;2832950;82;21661;-85
2022/08/21 06:48:57;;;;;;;4.47;3.52;;;;;;;17.96;100.00;100079.91;2849983;79;21023;-85
2022/08/21 06:53:04;;;;;;;5.30;4.80;;;;;;;18.00;100.00;100083.08;2880686;80;21072;-86
2022/08/21 06:57:06;;;;;;;7.83;4.72;;;;;;;17.98;100.00;100083.28;2922124;79;21027;-85
2022/08/21 07:01:07;;;;;;;10.00;3.87;;;;;;;18.05;100.00;100089.31;2907245;79;21016;-86
2022/08/21 07:05:08;;;;;;;5.65;3.55;;;;;;;18.11;100.00;100089.92;2903851;79;20978;-86
2022/08/21 07:09:10;;;;;;;3.95;2.98;;;;;;;18.04;100.00;100095.19;2910251;79;21021;-87
2022/08/21 07:13:12;;;;;;;5.62;3.50;;;;;;;18.03;100.00;100097.55;2912080;80;20995;-85
2022/08/21 07:17:13;;;;;;;5.20;2.98;;;;;;;17.89;100.00;100097.80;2897594;80;21502;-84
2022/08/21 07:21:16;;;;;;;5.37;4.33;;;;;;;17.81;100.00;100105.41;2909077;79;20999;-84
2022/08/21 07:25:17;;;;;;;9.10;4.33;;;;;;;17.83;100.00;100108.75;2909536;79;21057;-84
2022/08/21 07:29:19;;;;;;;3.92;2.98;;;;;;;17.79;100.00;100116.03;2868620;80;21084;-85
2022/08/21 07:33:21;;;;;;;4.75;3.30;;;;;;;17.69;100.00;100112.23;2908466;80;20987;-84
2022/08/21 07:37:22;;;;;;;6.65;4.62;;;;;;;17.69;100.00;100121.11;2853740;80;21309;-83
2022/08/21 07:41:28;;;;;;;7.95;4.50;;;;;;;17.68;100.00;100111.37;2811826;83;21054;-84
2022/08/21 07:45:31;;;;;;;6.30;2.55;;;;;;;17.63;100.00;100117.80;2806585;81;21554;-84
2022/08/21 07:49:33;;;;;;;6.42;4.42;;;;;;;17.52;100.00;100113.66;2814533;82;21017;-84
2022/08/21 07:53:36;;;;;;;5.87;3.67;;;;;;;17.58;100.00;100114.77;2849519;82;21062;-84
2022/08/21 07:57:37;;;;;;;5.53;3.87;;;;;;;17.46;100.00;100117.02;2769409;84;21094;-84
2022/08/21 08:01:39;;;;;;;4.87;3.15;;;;;;;17.51;100.00;100116.50;2762552;84;21100;-85
2022/08/21 08:05:41;;;;;;;8.38;3.55;;;;;;;17.52;100.00;100109.62;2761177;84;21041;-85
2022/08/21 08:09:43;;;;;;;6.10;3.08;;;;;;;17.61;100.00;100117.14;2778615;84;21609;-85
2022/08/21 08:13:48;;;;;;;4.78;3.35;;;;;;;17.62;100.00;100115.27;2778318;84;21084;-85
2022/08/21 08:17:50;;;;;;;6.00;2.98;;;;;;;17.70;100.00;100114.72;2759381;84;21034;-85
2022/08/21 08:21:52;;;;;;;6.03;3.95;;;;;;;17.60;100.00;100106.55;2839892;81;21125;-84
2022/08/21 08:25:54;;;;;;;6.83;3.42;;;;;;;17.53;100.00;100106.41;2835774;81;21054;-85
2022/08/21 08:29:55;;;;;;;5.40;3.47;;;;;;;17.54;100.00;100109.42;2730167;83;20972;-83
2022/08/21 08:33:57;;;;;;;4.35;2.87;;;;;;;17.52;100.00;100115.00;2757035;83;21080;-84
2022/08/21 08:37:58;;;;;;;4.55;3.95;;;;;;;17.47;100.00;100123.25;2714908;86;21048;-84
2022/08/21 08:42:14;;;;;;;3.50;2.98;;;;;;;17.48;100.00;100129.78;2774278;84;21019;-83
2022/08/21 08:46:19;;;;;;;5.75;3.83;;;;;;;17.51;100.00;100133.48;2780143;84;21023;-84
2022/08/21 08:50:46;;;;;;;3.75;2.70;;;;;;;17.56;100.00;100123.53;2778669;84;21831;-84
2022/08/21 08:54:54;;;;;;;;;;;;;;;17.38;100.00;100127.83;2772336;84;21058;-84
2022/08/21 08:59:00;;;;;;;7.50;4.00;;;;;;;17.45;100.00;100116.69;2815089;81;20097;-84
2022/08/21 09:03:03;;;;;;;8.80;3.47;;;;;;;17.51;100.00;100111.13;2849816;81;21508;-83
2022/08/21 09:07:46;;;;;;;4.22;2.60;;;;;;;17.53;100.00;100112.64;2838932;81;21145;-85
2022/08/21 09:12:35;;;;;;;13.98;3.42;;;;;;;17.53;100.00;100108.60;2828363;81;21055;-84
2022/08/21 09:17:13;;;;;;;15.75;3.22;;;;;;;17.63;100.00;100112.91;2777247;84;21581;-84
2022/08/21 09:21:37;;;;;;;2.85;2.42;;;;;;;17.66;100.00;100115.24;2798421;83;21019;-84
2022/08/21 09:26:04;;;;;;;4.45;3.12;;;;;;;17.68;100.00;100118.59;2872310;81;21039;-84
2022/08/21 09:30:07;;;;;;;4.08;2.55;;;;;;;17.82;100.00;100115.67;2794839;83;21030;-84
2022/08/21 09:34:13;;;;;;;3.50;2.40;;;;;;;17.93;100.00;100125.19;2804699;83;21048;-84
2022/08/21 09:38:18;;;;;;;;;;;;;;;17.97;100.00;100115.73;2777163;83;21093;-85
2022/08/21 09:42:28;;;;;;;4.80;2.85;;;;;;;18.01;100.00;100108.98;2823541;83;20135;-84
2022/08/21 09:46:30;;;;;;;4.35;2.20;;;;;;;18.16;100.00;100100.16;2802893;83;21051;-83
2022/08/21 09:50:31;;;;;;;6.37;3.52;;;;;;;18.34;100.00;100091.27;2851808;83;21011;-85
2022/08/21 09:54:38;;;;;;;4.47;3.17;;;;;;;18.46;100.00;100097.54;2804484;83;21058;-85
2022/08/21 09:58:41;;;;;;;;;;;;;;;18.58;100.00;100088.53;2809805;84;21090;-84
2022/08/21 10:02:42;;;;;;;7.97;1.67;;;;;;;18.53;100.00;100090.42;2776905;83;20107;-84
2022/08/21 10:06:43;;;;;;;2.98;2.17;;;;;;;18.66;100.00;100093.83;2773676;83;21075;-84
2022/08/21 10:10:45;;;;;;;6.92;2.92;;;;;;;18.65;100.00;100088.11;2787351;83;21007;-83
2022/08/21 10:15:19;;;;;;;2.60;2.35;;;;;;;18.46;100.00;100082.23;2799346;83;21050;-84
2022/08/21 10:19:41;;;;;;;4.37;2.75;;;;;;;18.58;100.00;100085.84;2800482;83;21033;-84
2022/08/21 10:24:15;;;;;;;2.50;1.65;;;;;;;18.62;100.00;100083.92;2775895;83;21089;-84
2022/08/21 10:28:28;;;;;;;3.30;2.52;;;;;;;18.53;100.00;100086.38;2782608;83;21085;-84
2022/08/21 10:33:09;;;;;;;1.98;1.42;;;;;;;18.59;100.00;100082.95;2800142;83;21599;-85
2022/08/21 10:37:37;;;;;;;4.33;2.33;;;;;;;18.65;100.00;100080.85;2787308;83;21585;-85
2022/08/21 10:42:19;;;;;;;2.98;2.47;;;;;;;18.72;100.00;100085.52;2776497;83;21058;-85
2022/08/21 10:46:41;;;;;;;2.70;2.10;;;;;;;18.85;100.00;100078.96;2761406;83;21135;-85
2022/08/21 10:50:54;;;;;;;6.92;3.30;;;;;;;19.04;100.00;100079.46;2776022;83;21592;-86
2022/08/21 10:55:17;;;;;;;4.35;3.15;;;;;;;19.07;100.00;100085.33;2798640;83;21043;-86
2022/08/21 10:59:43;;;;;;;25.55;2.90;;;;;;;19.12;100.00;100069.95;2794524;83;21565;-86
2022/08/21 11:03:52;;;;;;;5.20;2.15;;;;;;;19.18;100.00;100078.62;2790581;83;21037;-86
2022/08/21 11:08:08;;;;;;;3.12;2.17;;;;;;;19.17;100.00;100077.48;2790512;83;21015;-87
2022/08/21 11:12:24;;;;;;;2.15;2.02;;;;;;;19.21;100.00;100082.81;2803513;82;21020;-86
2022/08/21 11:16:39;;;;;;;2.85;2.20;;;;;;;19.22;100.00;100083.95;2803106;81;21013;-86
2022/08/21 11:20:48;;;;;;;4.15;1.92;;;;;;;19.22;100.00;100077.22;2809626;83;21058;-85
2022/08/21 11:25:21;;;;;;;5.87;2.65;;;;;;;19.21;100.00;100078.23;2832958;83;21071;-86
2022/08/21 11:29:29;;;;;;;2.90;2.55;;;;;;;19.19;100.00;100075.42;2856021;82;21070;-86
2022/08/21 11:33:42;;;;;;;2.33;1.37;;;;;;;19.28;100.00;100074.81;2841075;82;21007;-86
2022/08/21 11:37:58;;;;;;;3.37;2.10;;;;;;;19.33;99.59;100068.33;2862606;82;21059;-86
2022/08/21 11:42:12;;;;;;;;;;;;;;;19.34;96.83;100072.17;2832603;82;21043;-87
2022/08/21 11:46:40;;;;;;;4.33;1.82;;;;;;;19.51;98.74;100071.45;2921513;79;20195;-86
2022/08/21 11:50:44;;;;;;;6.60;2.77;;;;;;;19.57;99.65;100072.56;2892639;81;21482;-86
2022/08/21 11:55:03;;;;;;;2.90;1.90;;;;;;;19.60;99.89;100069.98;2895367;80;21299;-87
2022/08/21 11:59:10;;;;;;;2.50;1.95;;;;;;;19.58;98.24;100067.98;2922142;80;21840;-87
2022/08/21 12:03:15;;;;;;;3.50;2.65;;;;;;;19.63;97.51;100064.20;2829866;80;21032;-86
2022/08/21 12:07:40;;;;;;;4.37;2.45;;;;;;;19.65;97.02;100066.19;2901764;80;21028;-87
2022/08/21 12:11:48;;;;;;;4.03;2.95;;;;;;;19.67;95.85;100066.86;2817833;82;21226;-87
2022/08/21 12:15:50;;;;;;;5.12;3.20;;;;;;;19.72;99.40;100067.61;2804854;83;21086;-87
2022/08/21 12:20:02;;;;;;;3.72;2.77;;;;;;;19.73;98.66;100075.53;2808346;83;21122;-87
2022/08/21 12:24:15;;;;;;;4.55;2.98;;;;;;;19.75;100.00;100076.17;2816009;83;21030;-87
2022/08/21 12:28:23;;;;;;;7.37;3.62;;;;;;;19.87;100.00;100075.67;2841245;83;21697;-87
2022/08/21 12:32:29;;;;;;;4.17;3.22;;;;;;;19.81;100.00;100076.74;2834160;82;21043;-87
2022/08/21 12:36:48;;;;;;;3.92;3.42;;;;;;;19.86;100.00;100074.01;2841621;83;21034;-86
2022/08/21 12:41:00;;;;;;;5.03;3.77;;;;;;;19.91;100.00;100068.86;2806356;83;21046;-88
2022/08/21 12:45:22;;;;;;;5.83;3.60;;;;;;;19.93;100.00;100075.75;2825200;81;21753;-87
2022/08/21 12:49:47;;;;;;;4.10;3.70;;;;;;;19.90;100.00;100067.19;2914521;79;21031;-87
2022/08/21 12:53:55;;;;;;;4.72;4.10;;;;;;;20.07;100.00;100075.38;2849912;83;21034;-86
2022/08/21 12:57:57;;;;;;;5.40;3.95;;;;;;;19.93;100.00;100069.53;2816428;83;21079;-87
2022/08/21 13:02:03;;;;;;;7.47;3.80;;;;;;;20.06;100.00;100068.81;2778084;84;21039;-87
2022/08/21 13:06:06;;;;;;;5.72;4.67;;;;;;;20.02;100.00;100066.19;2801431;84;21550;-87
2022/08/21 13:10:29;;;;;;;5.37;4.15;;;;;;;20.06;100.00;100068.31;2782991;84;21027;-86
2022/08/21 13:14:40;;;;;;;7.80;4.55;;;;;;;20.15;100.00;100066.81;2772726;84;21014;-88
2022/08/21 13:18:59;;;;;;;8.50;3.60;;;;;;;20.14;100.00;100069.20;2785224;83;21082;-87
2022/08/21 13:23:17;;;;;;;6.97;3.25;;;;;;;20.10;100.00;100070.09;2794454;84;21587;-88
2022/08/21 13:27:26;;;;;;;8.68;4.50;;;;;;;20.20;100.00;100071.11;2786528;84;21036;-88
2022/08/21 13:31:31;;;;;;;5.10;4.67;;;;;;;20.30;100.00;100062.17;2842347;82;21038;-87
2022/08/21 13:35:52;;;;;;;20.57;4.85;;;;;;;20.40;100.00;100068.05;2804627;84;21015;-88
2022/08/21 13:39:54;;;;;;;5.92;4.87;;;;;;;20.45;100.00;100068.01;2796123;85;21121;-86
2022/08/21 13:44:05;;;;;;;7.00;4.58;;;;;;;20.49;100.00;100065.23;2794508;84;21622;-87
2022/08/21 13:48:07;;;;;;;6.83;4.87;;;;;;;20.50;100.00;100075.81;2786604;84;21022;-87
2022/08/21 13:52:20;;;;;;;4.65;3.90;;;;;;;20.47;100.00;100080.80;2824994;83;21039;-86
2022/08/21 13:56:35;;;;;;;5.28;4.78;;;;;;;20.38;100.00;100081.45;2798560;84;21081;-88
2022/08/21 14:00:47;;;;;;;8.13;4.87;;;;;;;20.40;100.00;100080.21;2804538;83;21027;-87
2022/08/21 14:04:59;;;;;;;7.30;4.10;;;;;;;20.39;100.00;100077.19;2803854;84;21078;-88
2022/08/21 14:09:05;;;;;;;18.98;5.15;;;;;;;20.22;100.00;100081.20;2733699;84;21079;-87
2022/08/21 14:13:10;;;;;;;4.85;3.60;;;;;;;20.22;100.00;100078.50;2743740;84;21023;-87
2022/08/21 14:17:16;;;;;;;7.78;3.95;;;;;;;20.26;100.00;100074.41;2779088;84;21072;-87
2022/08/21 14:21:34;;;;;;;8.75;4.80;;;;;;;20.39;100.00;100074.48;2790150;84;21024;-87
2022/08/21 14:25:43;;;;;;;5.62;4.03;;;;;;;20.39;100.00;100072.32;2798583;83;21047;-88
2022/08/21 14:29:45;;;;;;;6.72;4.83;;;;;;;20.33;100.00;100056.38;2807575;84;21021;-88
2022/08/21 14:33:47;;;;;;;4.70;3.17;;;;;;;20.37;100.00;100071.69;2826063;83;21026;-87
2022/08/21 14:37:53;;;;;;;5.47;3.87;;;;;;;20.40;99.28;100072.64;2804883;83;21526;-88
2022/08/21 14:41:57;;;;;;;5.03;4.50;;;;;;;20.45;99.14;100081.52;2831839;82;21007;-87
2022/08/21 14:46:00;;;;;;;5.80;4.20;;;;;;;20.41;98.33;100085.93;2805372;83;21033;-87
2022/08/21 14:50:01;;;;;;;7.25;4.40;;;;;;;20.36;99.04;100088.39;2800554;83;21038;-87
2022/08/21 14:54:03;;;;;;;3.65;3.30;;;;;;;20.25;99.14;100087.05;2818567;82;21037;-87
2022/08/21 14:58:04;;;;;;;3.87;3.47;;;;;;;20.25;100.00;100090.29;2801545;83;21042;-87
2022/08/21 15:02:08;;;;;;;8.35;4.92;;;;;;;20.28;100.00;100099.34;2786221;83;21565;-87
2022/08/21 15:06:10;;;;;;;12.73;5.08;;;;;;;20.32;100.00;100101.13;2777306;81;21555;-87
2022/08/21 15:10:12;;;;;;;5.30;4.08;;;;;;;20.22;100.00;100092.85;2835336;82;21121;-86
2022/08/21 15:14:21;;;;;;;11.00;4.28;;;;;;;20.19;100.00;100093.75;2803706;83;21202;-87
2022/08/21 15:18:25;;;;;;;6.40;5.28;;;;;;;20.14;100.00;100100.25;2833243;82;21021;-86
2022/08/21 15:22:27;;;;;;;5.30;4.50;;;;;;;20.10;100.00;100094.39;2823507;82;22167;-87
2022/08/21 15:26:28;;;;;;;9.65;5.25;;;;;;;20.08;100.00;100091.91;2821500;82;21023;-86
2022/08/21 15:30:30;;;;;;;6.83;4.92;;;;;;;20.12;100.00;100091.83;2830933;82;21077;-87
2022/08/21 15:34:31;;;;;;;6.85;5.42;;;;;;;20.17;100.00;100089.05;2845073;82;21047;-87
2022/08/21 15:38:33;;;;;;;7.45;4.90;;;;;;;20.14;100.00;100091.62;2821859;82;21018;-87
2022/08/21 15:42:35;;;;;;;5.80;5.08;;;;;;;20.18;100.00;100090.73;2818019;82;21038;-87
2022/08/21 15:46:38;;;;;;;6.05;4.97;;;;;;;20.20;100.00;100092.21;2805299;82;21005;-87
2022/08/21 15:50:40;;;;;;;7.33;5.58;;;;;;;20.22;100.00;100092.00;2823108;82;29731;-87
2022/08/21 15:54:42;;;;;;;8.03;5.05;;;;;;;20.29;100.00;100098.31;2799345;83;21012;-87
2022/08/21 15:58:43;;;;;;;6.30;5.20;;;;;;;20.31;100.00;100098.95;2763242;84;21087;-87
2022/08/21 16:02:48;;;;;;;8.45;5.37;;;;;;;20.37;100.00;100096.00;2865727;80;21111;-87
2022/08/21 16:06:50;;;;;;;8.73;5.70;;;;;;;20.43;100.00;100102.45;2885916;79;21083;-87
2022/08/21 16:10:53;;;;;;;10.35;5.42;;;;;;;20.52;100.00;100087.79;2915917;79;21621;-87
2022/08/21 16:14:54;;;;;;;10.10;5.83;;;;;;;20.55;100.00;100094.15;2824577;80;21064;-88
2022/08/21 16:18:56;;;;;;;6.15;4.78;;;;;;;20.61;100.00;100090.65;2872750;80;21012;-87
2022/08/21 16:22:58;;;;;;;6.12;5.40;;;;;;;20.65;100.00;100097.35;2890712;80;21401;-87
2022/08/21 16:26:59;;;;;;;10.30;5.05;;;;;;;20.64;100.00;100098.89;2880464;80;21417;-87
2022/08/21 16:31:02;;;;;;;5.22;4.72;;;;;;;20.62;100.00;100103.12;2861793;80;21041;-87
2022/08/21 16:35:04;;;;;;;6.00;4.28;;;;;;;20.60;100.00;100107.89;2924563;80;20971;-88
2022/08/21 16:39:05;;;;;;;5.75;4.30;;;;;;;20.63;100.00;100111.55;2865083;81;21298;-87
2022/08/21 16:43:07;;;;;;;3.92;3.52;;;;;;;20.58;100.00;100109.96;2873745;79;20992;-87
2022/08/21 16:47:08;;;;;;;8.35;4.45;;;;;;;20.60;100.00;100115.18;2886503;80;21028;-87
2022/08/21 16:51:12;;;;;;;4.97;3.58;;;;;;;20.60;100.00;100131.39;2909691;79;21542;-87
2022/08/21 16:55:13;;;;;;;4.20;3.40;;;;;;;20.49;100.00;100117.91;2842874;82;21146;-87
2022/08/21 16:59:15;;;;;;;3.70;3.40;;;;;;;20.39;100.00;100129.05;2840980;82;21051;-87
2022/08/21 17:03:20;;;;;;;4.80;4.37;;;;;;;20.32;100.00;100128.98;2754348;84;21022;-86
2022/08/21 17:07:22;;;;;;;4.53;2.87;;;;;;;20.29;100.00;100133.42;2777749;83;21063;-86
2022/08/21 17:11:34;;;;;;;3.67;2.90;;;;;;;20.25;100.00;100137.02;2835304;83;21078;-86
2022/08/21 17:15:38;;;;;;;3.90;3.12;;;;;;;20.14;100.00;100134.81;2773151;83;21045;-87
2022/08/21 17:19:41;;;;;;;4.12;2.10;;;;;;;20.05;99.31;100139.54;2838394;82;21068;-87
2022/08/21 17:23:42;;;;;;;4.70;2.20;;;;;;;20.09;100.00;100135.42;2837988;82;20999;-87
2022/08/21 17:27:47;;;;;;;2.35;2.15;;;;;;;20.07;100.00;100131.23;2919521;80;21015;-87
2022/08/21 17:31:48;;;;;;;3.87;2.47;;;;;;;19.96;100.00;100142.02;2905445;79;21073;-87
2022/08/21 17:35:49;;;;;;;3.25;2.33;;;;;;;19.93;100.00;100142.41;2855832;81;20996;-86
2022/08/21 17:39:50;;;;;;;2.83;2.25;;;;;;;19.88;100.00;100136.19;2879344;80;21032;-87
2022/08/21 17:43:53;;;;;;;3.60;2.67;;;;;;;19.88;100.00;100139.42;2889966;80;21057;-87
2022/08/21 17:47:55;;;;;;;3.15;2.67;;;;;;;19.93;100.00;100146.45;2860182;81;21002;-86
2022/08/21 17:51:56;;;;;;;3.47;2.47;;;;;;;19.87;99.49;100153.95;2890201;80;21039;-86
2022/08/21 17:55:57;;;;;;;4.45;2.90;;;;;;;19.92;100.00;100157.75;2920334;79;21348;-85
2022/08/21 17:59:58;;;;;;;2.95;1.77;;;;;;;19.95;100.00;100155.20;2909003;80;21038;-86
2022/08/21 18:04:01;;;;;;;2.52;2.25;;;;;;;19.99;100.00;100156.48;2794128;83;21007;-86
2022/08/21 18:08:02;;;;;;;2.85;2.52;;;;;;;19.97;100.00;100152.64;2886765;80;20997;-87
2022/08/21 18:12:04;;;;;;;3.95;2.58;;;;;;;19.97;100.00;100159.89;2886401;79;21004;-86
2022/08/21 18:16:07;;;;;;;4.05;2.33;;;;;;;20.04;100.00;100158.09;2875840;79;21027;-85
2022/08/21 18:20:09;;;;;;;4.97;2.50;;;;;;;20.01;100.00;100161.17;2873954;80;21003;-87
2022/08/21 18:24:10;;;;;;;3.42;2.40;;;;;;;20.02;100.00;100162.02;2874753;80;21037;-86
2022/08/21 18:28:12;;;;;;;3.47;2.77;;;;;;;20.02;100.00;100162.84;2882336;80;21053;-86
2022/08/21 18:32:18;;;;;;;2.62;2.42;;;;;;;20.00;100.00;100157.33;2858769;80;21042;-87
2022/08/21 18:36:19;;;;;;;3.22;2.65;;;;;;;20.01;100.00;100154.42;2885818;80;20999;-87
2022/08/21 18:40:20;;;;;;;3.15;2.30;;;;;;;19.96;100.00;100148.77;2890590;80;21026;-86
2022/08/21 18:44:26;;;;;;;3.20;2.77;;;;;;;19.87;100.00;100154.77;2873051;79;21015;-87
2022/08/21 18:48:28;;;;;;;2.98;2.67;;;;;;;19.82;100.00;100145.87;2828178;82;21021;-86
2022/08/21 18:52:29;;;;;;;3.95;2.47;;;;;;;19.72;100.00;100154.81;2836898;82;21137;-86
2022/08/21 18:56:33;;;;;;;2.65;2.45;;;;;;;19.70;100.00;100154.98;2864729;82;21024;-86